Карточка аэропорта UATT

Внимание!
Информация на этой странице в стадии наполнения.
Если вы не увидели какой-то информации, или заметили неточность - пожалуйста сообщите нам!
Спасибо!
Команда RU-STAFF
Название аэропортаАктобе
Название аэропорта (англ.)Aktobe
Превышение738 ft. (224.9 m.)
Координаты50°14.748', 57°12.402'
Высота перехода10000ft
Эшелон переходаFL120, QNH<733:FL130
Коды ответчика3440-3447, 3540-3547
Зона ОрВДАктобе РПИ (UATT)
Данные METARUATT 141400Z 04007MPS CAVOK 23/18 Q1004 NOSIG RMK QFE733/0977
Проноз погоды (TAF)UATT 141100Z 1412/1512 03005MPS 9999 BKN033CB TX27/1412Z TN19/1501Z TEMPO 1412/1416 04015MPS 3100 -TSRA BKN015CB TEMPO 1500/1506 03010MPS 3100 -SHRA BKN011 BKN015CB
NOTAMshow/hide NOTAM
AWOS   TABLE

Информация о ВПП

ВПП Длина ВПП (м.) Покрытие Курс ВПП Частота ILS
133202Бетон135111.7
313202Бетон315111.7

Диспетчерские позиции




Спутниковое изображение